sensor_id;sensor_type;location;lat;lon;timestamp;temperature;humidity
6256;DHT22;3161;48.794;9.784;2023-03-03T00:02:21;2.50;99.90
6256;DHT22;3161;48.794;9.784;2023-03-03T00:04:49;2.50;99.90
6256;DHT22;3161;48.794;9.784;2023-03-03T00:07:16;2.40;99.90
6256;DHT22;3161;48.794;9.784;2023-03-03T00:09:46;2.40;99.90
6256;DHT22;3161;48.794;9.784;2023-03-03T00:12:25;2.40;99.90
6256;DHT22;3161;48.794;9.784;2023-03-03T00:14:53;2.30;99.90
6256;DHT22;3161;48.794;9.784;2023-03-03T00:17:24;2.30;99.90
6256;DHT22;3161;48.794;9.784;2023-03-03T00:19:52;2.20;99.90
6256;DHT22;3161;48.794;9.784;2023-03-03T00:23:03;2.20;99.90
6256;DHT22;3161;48.794;9.784;2023-03-03T00:25:24;2.10;99.90
6256;DHT22;3161;48.794;9.784;2023-03-03T00:27:49;2.10;99.90
6256;DHT22;3161;48.794;9.784;2023-03-03T00:30:24;2.10;99.90
6256;DHT22;3161;48.794;9.784;2023-03-03T00:32:53;2.10;99.90
6256;DHT22;3161;48.794;9.784;2023-03-03T00:35:29;2.00;99.90
6256;DHT22;3161;48.794;9.784;2023-03-03T00:38:00;2.00;99.90
6256;DHT22;3161;48.794;9.784;2023-03-03T00:40:36;2.00;99.90
6256;DHT22;3161;48.794;9.784;2023-03-03T00:43:21;2.00;99.90
6256;DHT22;3161;48.794;9.784;2023-03-03T00:45:58;1.90;99.90
6256;DHT22;3161;48.794;9.784;2023-03-03T00:51:00;1.90;99.90
6256;DHT22;3161;48.794;9.784;2023-03-03T00:53:25;1.80;99.90
6256;DHT22;3161;48.794;9.784;2023-03-03T00:55:53;1.80;99.90
6256;DHT22;3161;48.794;9.784;2023-03-03T00:58:22;1.80;99.90
6256;DHT22;3161;48.794;9.784;2023-03-03T01:00:51;1.80;99.90
6256;DHT22;3161;48.794;9.784;2023-03-03T01:03:22;1.80;99.90
6256;DHT22;3161;48.794;9.784;2023-03-03T01:05:51;1.70;99.90
6256;DHT22;3161;48.794;9.784;2023-03-03T01:08:19;1.70;99.90
6256;DHT22;3161;48.794;9.784;2023-03-03T01:10:52;1.70;99.90
6256;DHT22;3161;48.794;9.784;2023-03-03T01:13:24;1.60;99.90
6256;DHT22;3161;48.794;9.784;2023-03-03T01:15:51;1.60;99.90
6256;DHT22;3161;48.794;9.784;2023-03-03T01:18:19;1.60;99.90
6256;DHT22;3161;48.794;9.784;2023-03-03T01:20:46;1.60;99.90
6256;DHT22;3161;48.794;9.784;2023-03-03T01:23:14;1.60;99.90
6256;DHT22;3161;48.794;9.784;2023-03-03T01:25:42;1.60;99.90
6256;DHT22;3161;48.794;9.784;2023-03-03T01:28:09;1.70;99.90
6256;DHT22;3161;48.794;9.784;2023-03-03T01:30:37;1.70;99.90
6256;DHT22;3161;48.794;9.784;2023-03-03T01:33:05;1.70;99.90
6256;DHT22;3161;48.794;9.784;2023-03-03T01:35:33;1.80;99.90
6256;DHT22;3161;48.794;9.784;2023-03-03T01:38:02;1.80;99.90
6256;DHT22;3161;48.794;9.784;2023-03-03T01:40:30;1.90;99.90
6256;DHT22;3161;48.794;9.784;2023-03-03T01:43:01;2.00;99.90
6256;DHT22;3161;48.794;9.784;2023-03-03T01:48:41;2.10;99.90
6256;DHT22;3161;48.794;9.784;2023-03-03T01:51:14;2.10;99.90
6256;DHT22;3161;48.794;9.784;2023-03-03T01:53:49;2.10;99.90
6256;DHT22;3161;48.794;9.784;2023-03-03T01:56:12;2.20;99.90
6256;DHT22;3161;48.794;9.784;2023-03-03T01:58:51;2.20;99.90
6256;DHT22;3161;48.794;9.784;2023-03-03T02:01:21;2.30;99.90
6256;DHT22;3161;48.794;9.784;2023-03-03T02:03:50;2.30;99.90
6256;DHT22;3161;48.794;9.784;2023-03-03T02:06:30;2.30;99.90
6256;DHT22;3161;48.794;9.784;2023-03-03T02:08:58;2.30;99.90
6256;DHT22;3161;48.794;9.784;2023-03-03T02:11:23;2.40;99.90
6256;DHT22;3161;48.794;9.784;2023-03-03T02:13:54;2.40;99.90
6256;DHT22;3161;48.794;9.784;2023-03-03T02:16:22;2.40;99.90
6256;DHT22;3161;48.794;9.784;2023-03-03T02:18:50;2.40;99.90
6256;DHT22;3161;48.794;9.784;2023-03-03T02:21:20;2.50;99.90
6256;DHT22;3161;48.794;9.784;2023-03-03T02:26:48;2.40;99.90
6256;DHT22;3161;48.794;9.784;2023-03-03T02:29:15;2.50;99.90
6256;DHT22;3161;48.794;9.784;2023-03-03T02:31:43;2.40;99.90
6256;DHT22;3161;48.794;9.784;2023-03-03T02:34:11;2.40;99.90
6256;DHT22;3161;48.794;9.784;2023-03-03T02:36:39;2.40;99.90
6256;DHT22;3161;48.794;9.784;2023-03-03T02:39:20;2.40;99.90
6256;DHT22;3161;48.794;9.784;2023-03-03T02:42:12;2.40;99.90
6256;DHT22;3161;48.794;9.784;2023-03-03T02:44:40;2.50;99.90
6256;DHT22;3161;48.794;9.784;2023-03-03T02:47:08;2.50;99.90
6256;DHT22;3161;48.794;9.784;2023-03-03T02:49:36;2.50;99.90
6256;DHT22;3161;48.794;9.784;2023-03-03T02:52:06;2.50;99.90
6256;DHT22;3161;48.794;9.784;2023-03-03T02:54:35;2.50;99.90
6256;DHT22;3161;48.794;9.784;2023-03-03T02:57:04;2.50;99.90
6256;DHT22;3161;48.794;9.784;2023-03-03T02:59:32;2.50;99.90
6256;DHT22;3161;48.794;9.784;2023-03-03T03:02:00;2.60;99.90
6256;DHT22;3161;48.794;9.784;2023-03-03T03:04:27;2.60;99.90
6256;DHT22;3161;48.794;9.784;2023-03-03T03:06:55;2.60;99.90
6256;DHT22;3161;48.794;9.784;2023-03-03T03:09:24;2.60;99.90
6256;DHT22;3161;48.794;9.784;2023-03-03T03:11:53;2.60;99.90
6256;DHT22;3161;48.794;9.784;2023-03-03T03:14:21;2.20;99.90
6256;DHT22;3161;48.794;9.784;2023-03-03T03:16:49;2.60;99.90
6256;DHT22;3161;48.794;9.784;2023-03-03T03:19:17;2.60;99.90
6256;DHT22;3161;48.794;9.784;2023-03-03T03:21:45;2.70;99.90
6256;DHT22;3161;48.794;9.784;2023-03-03T03:24:12;2.70;99.90
6256;DHT22;3161;48.794;9.784;2023-03-03T03:26:40;2.70;99.90
6256;DHT22;3161;48.794;9.784;2023-03-03T03:29:07;2.70;99.90
6256;DHT22;3161;48.794;9.784;2023-03-03T03:31:36;2.70;99.90
6256;DHT22;3161;48.794;9.784;2023-03-03T03:34:04;2.80;99.90
6256;DHT22;3161;48.794;9.784;2023-03-03T03:36:32;2.80;99.90
6256;DHT22;3161;48.794;9.784;2023-03-03T03:38:59;2.80;99.90
6256;DHT22;3161;48.794;9.784;2023-03-03T03:41:28;2.80;99.90
6256;DHT22;3161;48.794;9.784;2023-03-03T03:43:55;2.80;99.90
6256;DHT22;3161;48.794;9.784;2023-03-03T03:46:23;2.80;99.90
6256;DHT22;3161;48.794;9.784;2023-03-03T03:48:50;2.80;99.90
6256;DHT22;3161;48.794;9.784;2023-03-03T03:51:18;2.70;99.90
6256;DHT22;3161;48.794;9.784;2023-03-03T03:53:45;2.70;99.90
6256;DHT22;3161;48.794;9.784;2023-03-03T03:56:13;2.70;99.90
6256;DHT22;3161;48.794;9.784;2023-03-03T03:58:41;2.70;99.90
6256;DHT22;3161;48.794;9.784;2023-03-03T04:01:08;2.70;99.90
6256;DHT22;3161;48.794;9.784;2023-03-03T04:03:36;2.70;99.90
6256;DHT22;3161;48.794;9.784;2023-03-03T04:06:04;2.70;99.90
6256;DHT22;3161;48.794;9.784;2023-03-03T04:08:31;2.70;99.90
6256;DHT22;3161;48.794;9.784;2023-03-03T04:10:59;2.70;99.90
6256;DHT22;3161;48.794;9.784;2023-03-03T04:13:26;2.70;99.90
6256;DHT22;3161;48.794;9.784;2023-03-03T04:15:55;2.70;99.90
6256;DHT22;3161;48.794;9.784;2023-03-03T04:18:23;2.70;99.90
6256;DHT22;3161;48.794;9.784;2023-03-03T04:20:51;2.70;99.90
6256;DHT22;3161;48.794;9.784;2023-03-03T04:23:20;2.70;99.90
6256;DHT22;3161;48.794;9.784;2023-03-03T04:25:48;2.70;99.90
6256;DHT22;3161;48.794;9.784;2023-03-03T04:28:16;2.70;99.90
6256;DHT22;3161;48.794;9.784;2023-03-03T04:30:44;2.70;99.90
6256;DHT22;3161;48.794;9.784;2023-03-03T04:33:12;2.70;99.90
6256;DHT22;3161;48.794;9.784;2023-03-03T04:35:39;2.70;99.90
6256;DHT22;3161;48.794;9.784;2023-03-03T04:38:07;2.70;99.90
6256;DHT22;3161;48.794;9.784;2023-03-03T04:40:34;2.70;99.90
6256;DHT22;3161;48.794;9.784;2023-03-03T04:43:02;2.70;99.90
6256;DHT22;3161;48.794;9.784;2023-03-03T04:45:29;2.70;99.90
6256;DHT22;3161;48.794;9.784;2023-03-03T04:47:57;2.70;99.90
6256;DHT22;3161;48.794;9.784;2023-03-03T04:50:24;2.60;99.90
6256;DHT22;3161;48.794;9.784;2023-03-03T04:52:52;2.70;99.90
6256;DHT22;3161;48.794;9.784;2023-03-03T04:55:19;2.70;99.90
6256;DHT22;3161;48.794;9.784;2023-03-03T04:57:47;2.70;99.90
6256;DHT22;3161;48.794;9.784;2023-03-03T05:00:15;2.70;99.90
6256;DHT22;3161;48.794;9.784;2023-03-03T05:02:43;2.70;99.90
6256;DHT22;3161;48.794;9.784;2023-03-03T05:05:11;2.70;99.90
6256;DHT22;3161;48.794;9.784;2023-03-03T05:07:39;2.70;99.90
6256;DHT22;3161;48.794;9.784;2023-03-03T05:10:08;2.70;99.90
6256;DHT22;3161;48.794;9.784;2023-03-03T05:12:36;2.70;99.90
6256;DHT22;3161;48.794;9.784;2023-03-03T05:15:04;2.70;99.90
6256;DHT22;3161;48.794;9.784;2023-03-03T05:17:32;2.70;99.90
6256;DHT22;3161;48.794;9.784;2023-03-03T05:20:00;2.70;99.90
6256;DHT22;3161;48.794;9.784;2023-03-03T05:22:27;2.70;99.90
6256;DHT22;3161;48.794;9.784;2023-03-03T05:24:55;2.70;99.90
6256;DHT22;3161;48.794;9.784;2023-03-03T05:27:23;2.70;99.90
6256;DHT22;3161;48.794;9.784;2023-03-03T05:29:50;2.70;99.90
6256;DHT22;3161;48.794;9.784;2023-03-03T05:32:18;2.70;99.90
6256;DHT22;3161;48.794;9.784;2023-03-03T05:34:45;2.70;99.90
6256;DHT22;3161;48.794;9.784;2023-03-03T05:37:13;2.60;99.90
6256;DHT22;3161;48.794;9.784;2023-03-03T05:39:41;2.70;99.90
6256;DHT22;3161;48.794;9.784;2023-03-03T05:42:14;2.60;99.90
6256;DHT22;3161;48.794;9.784;2023-03-03T05:44:40;2.60;99.90
6256;DHT22;3161;48.794;9.784;2023-03-03T05:47:08;2.70;99.90
6256;DHT22;3161;48.794;9.784;2023-03-03T05:49:36;2.70;99.90
6256;DHT22;3161;48.794;9.784;2023-03-03T05:52:03;2.70;99.90
6256;DHT22;3161;48.794;9.784;2023-03-03T05:54:31;2.70;99.90
6256;DHT22;3161;48.794;9.784;2023-03-03T05:56:58;2.70;99.90
6256;DHT22;3161;48.794;9.784;2023-03-03T05:59:26;2.70;99.90
6256;DHT22;3161;48.794;9.784;2023-03-03T06:01:53;2.70;99.90
6256;DHT22;3161;48.794;9.784;2023-03-03T06:04:21;2.70;99.90
6256;DHT22;3161;48.794;9.784;2023-03-03T06:06:49;2.70;99.90
6256;DHT22;3161;48.794;9.784;2023-03-03T06:09:16;2.70;99.90
6256;DHT22;3161;48.794;9.784;2023-03-03T06:11:44;2.70;99.90
6256;DHT22;3161;48.794;9.784;2023-03-03T06:14:12;2.70;99.90
6256;DHT22;3161;48.794;9.784;2023-03-03T06:16:39;2.70;99.90
6256;DHT22;3161;48.794;9.784;2023-03-03T06:19:07;2.70;99.90
6256;DHT22;3161;48.794;9.784;2023-03-03T06:21:34;2.70;99.90
6256;DHT22;3161;48.794;9.784;2023-03-03T06:24:02;2.70;99.90
6256;DHT22;3161;48.794;9.784;2023-03-03T06:26:31;2.70;99.90
6256;DHT22;3161;48.794;9.784;2023-03-03T06:28:59;2.80;99.90
6256;DHT22;3161;48.794;9.784;2023-03-03T06:31:27;2.80;99.90
6256;DHT22;3161;48.794;9.784;2023-03-03T06:33:55;2.80;99.90
6256;DHT22;3161;48.794;9.784;2023-03-03T06:36:22;2.80;99.90
6256;DHT22;3161;48.794;9.784;2023-03-03T06:38:51;2.80;99.90
6256;DHT22;3161;48.794;9.784;2023-03-03T06:41:18;2.90;99.90
6256;DHT22;3161;48.794;9.784;2023-03-03T06:43:46;2.90;99.90
6256;DHT22;3161;48.794;9.784;2023-03-03T06:46:14;2.90;99.90
6256;DHT22;3161;48.794;9.784;2023-03-03T06:48:42;2.90;99.90
6256;DHT22;3161;48.794;9.784;2023-03-03T06:51:25;2.90;99.90
6256;DHT22;3161;48.794;9.784;2023-03-03T06:53:55;2.90;99.90
6256;DHT22;3161;48.794;9.784;2023-03-03T06:56:24;2.90;99.90
6256;DHT22;3161;48.794;9.784;2023-03-03T06:59:00;2.90;99.90
6256;DHT22;3161;48.794;9.784;2023-03-03T07:01:31;3.00;99.90
6256;DHT22;3161;48.794;9.784;2023-03-03T07:03:58;3.00;99.90
6256;DHT22;3161;48.794;9.784;2023-03-03T07:06:26;3.00;99.90
6256;DHT22;3161;48.794;9.784;2023-03-03T07:08:55;3.10;99.90
6256;DHT22;3161;48.794;9.784;2023-03-03T07:11:23;3.10;99.90
6256;DHT22;3161;48.794;9.784;2023-03-03T07:13:53;3.20;99.90
6256;DHT22;3161;48.794;9.784;2023-03-03T07:16:26;3.20;99.90
6256;DHT22;3161;48.794;9.784;2023-03-03T07:18:55;3.30;99.90
6256;DHT22;3161;48.794;9.784;2023-03-03T07:21:30;3.40;99.90
6256;DHT22;3161;48.794;9.784;2023-03-03T07:26:48;3.40;99.90
6256;DHT22;3161;48.794;9.784;2023-03-03T07:31:53;3.50;99.90
6256;DHT22;3161;48.794;9.784;2023-03-03T07:34:24;3.60;99.90
6256;DHT22;3161;48.794;9.784;2023-03-03T07:36:54;3.70;99.90
6256;DHT22;3161;48.794;9.784;2023-03-03T07:39:37;3.80;99.90
6256;DHT22;3161;48.794;9.784;2023-03-03T07:44:58;3.80;99.90
6256;DHT22;3161;48.794;9.784;2023-03-03T07:47:29;3.90;99.90
6256;DHT22;3161;48.794;9.784;2023-03-03T07:50:09;4.00;99.90
6256;DHT22;3161;48.794;9.784;2023-03-03T07:52:41;4.10;99.90
6256;DHT22;3161;48.794;9.784;2023-03-03T07:55:32;4.10;99.90
6256;DHT22;3161;48.794;9.784;2023-03-03T07:58:24;4.20;99.90
6256;DHT22;3161;48.794;9.784;2023-03-03T08:03:08;4.30;99.90
6256;DHT22;3161;48.794;9.784;2023-03-03T08:05:39;4.40;99.90
6256;DHT22;3161;48.794;9.784;2023-03-03T08:08:13;4.50;99.90
6256;DHT22;3161;48.794;9.784;2023-03-03T08:10:52;4.60;99.90
6256;DHT22;3161;48.794;9.784;2023-03-03T08:18:46;5.10;99.90
6256;DHT22;3161;48.794;9.784;2023-03-03T08:21:19;5.60;99.90
6256;DHT22;3161;48.794;9.784;2023-03-03T08:23:47;5.90;99.90
6256;DHT22;3161;48.794;9.784;2023-03-03T08:26:18;6.10;99.90
6256;DHT22;3161;48.794;9.784;2023-03-03T08:28:46;6.40;99.90
6256;DHT22;3161;48.794;9.784;2023-03-03T08:31:14;7.00;99.90
6256;DHT22;3161;48.794;9.784;2023-03-03T08:33:44;7.60;99.90
6256;DHT22;3161;48.794;9.784;2023-03-03T08:36:12;8.00;99.90
6256;DHT22;3161;48.794;9.784;2023-03-03T08:38:40;8.10;99.90
6256;DHT22;3161;48.794;9.784;2023-03-03T08:41:08;8.20;99.90
6256;DHT22;3161;48.794;9.784;2023-03-03T08:43:36;8.60;99.90
6256;DHT22;3161;48.794;9.784;2023-03-03T08:46:05;8.70;99.90
6256;DHT22;3161;48.794;9.784;2023-03-03T08:48:35;8.70;99.90
6256;DHT22;3161;48.794;9.784;2023-03-03T08:51:03;8.70;99.90
6256;DHT22;3161;48.794;9.784;2023-03-03T08:53:31;8.50;99.90
6256;DHT22;3161;48.794;9.784;2023-03-03T08:56:00;8.40;99.90
6256;DHT22;3161;48.794;9.784;2023-03-03T08:58:28;8.40;99.90
6256;DHT22;3161;48.794;9.784;2023-03-03T09:00:55;8.40;99.90
6256;DHT22;3161;48.794;9.784;2023-03-03T09:03:25;8.30;99.90
6256;DHT22;3161;48.794;9.784;2023-03-03T09:05:52;8.30;99.90
6256;DHT22;3161;48.794;9.784;2023-03-03T09:08:20;8.30;99.90
6256;DHT22;3161;48.794;9.784;2023-03-03T09:10:47;8.30;99.90
6256;DHT22;3161;48.794;9.784;2023-03-03T09:13:17;8.20;99.90
6256;DHT22;3161;48.794;9.784;2023-03-03T09:15:46;8.30;99.90
6256;DHT22;3161;48.794;9.784;2023-03-03T09:18:19;8.50;99.90
6256;DHT22;3161;48.794;9.784;2023-03-03T09:20:53;8.60;99.90
6256;DHT22;3161;48.794;9.784;2023-03-03T09:23:28;8.60;99.90
6256;DHT22;3161;48.794;9.784;2023-03-03T09:26:44;8.60;99.90
6256;DHT22;3161;48.794;9.784;2023-03-03T09:28:29;8.50;99.90
6256;DHT22;3161;48.794;9.784;2023-03-03T09:31:01;8.50;99.90
6256;DHT22;3161;48.794;9.784;2023-03-03T09:33:41;8.50;99.90
6256;DHT22;3161;48.794;9.784;2023-03-03T09:38:53;8.50;99.90
6256;DHT22;3161;48.794;9.784;2023-03-03T09:49:57;9.00;99.90
6256;DHT22;3161;48.794;9.784;2023-03-03T09:55:24;9.10;99.90
6256;DHT22;3161;48.794;9.784;2023-03-03T10:00:41;9.20;99.90
6256;DHT22;3161;48.794;9.784;2023-03-03T10:06:37;9.40;99.90
6256;DHT22;3161;48.794;9.784;2023-03-03T10:20:34;9.90;99.90
6256;DHT22;3161;48.794;9.784;2023-03-03T10:26:00;10.30;99.90
6256;DHT22;3161;48.794;9.784;2023-03-03T10:28:44;10.50;99.90
6256;DHT22;3161;48.794;9.784;2023-03-03T10:31:26;10.60;99.90
6256;DHT22;3161;48.794;9.784;2023-03-03T10:36:41;10.90;99.90
6256;DHT22;3161;48.794;9.784;2023-03-03T10:39:12;11.10;99.90
6256;DHT22;3161;48.794;9.784;2023-03-03T10:41:47;11.30;99.00
6256;DHT22;3161;48.794;9.784;2023-03-03T10:47:23;11.50;97.10
6256;DHT22;3161;48.794;9.784;2023-03-03T11:01:12;12.80;94.30
6256;DHT22;3161;48.794;9.784;2023-03-03T11:04:02;13.20;92.30
6256;DHT22;3161;48.794;9.784;2023-03-03T11:12:00;14.30;89.90
6256;DHT22;3161;48.794;9.784;2023-03-03T11:14:32;14.40;88.50
6256;DHT22;3161;48.794;9.784;2023-03-03T11:20:10;14.30;87.80
6256;DHT22;3161;48.794;9.784;2023-03-03T11:28:26;14.10;81.30
6256;DHT22;3161;48.794;9.784;2023-03-03T11:36:36;13.60;81.40
6256;DHT22;3161;48.794;9.784;2023-03-03T11:39:07;13.30;80.00
6256;DHT22;3161;48.794;9.784;2023-03-03T11:41:58;13.20;82.50
6256;DHT22;3161;48.794;9.784;2023-03-03T11:44:40;13.10;83.40
6256;DHT22;3161;48.794;9.784;2023-03-03T11:50:11;13.00;80.80
6256;DHT22;3161;48.794;9.784;2023-03-03T11:55:23;12.90;79.70
6256;DHT22;3161;48.794;9.784;2023-03-03T11:58:12;12.90;80.50
6256;DHT22;3161;48.794;9.784;2023-03-03T12:03:18;13.00;80.70
6256;DHT22;3161;48.794;9.784;2023-03-03T12:11:29;13.30;80.90
6256;DHT22;3161;48.794;9.784;2023-03-03T12:14:09;13.40;79.60
6256;DHT22;3161;48.794;9.784;2023-03-03T12:19:51;13.80;77.70
6256;DHT22;3161;48.794;9.784;2023-03-03T12:27:55;14.60;75.80
6256;DHT22;3161;48.794;9.784;2023-03-03T12:30:38;15.30;71.40
6256;DHT22;3161;48.794;9.784;2023-03-03T12:33:31;15.70;68.00
6256;DHT22;3161;48.794;9.784;2023-03-03T12:36:05;16.10;69.10
6256;DHT22;3161;48.794;9.784;2023-03-03T12:44:07;17.70;64.40
6256;DHT22;3161;48.794;9.784;2023-03-03T12:46:53;18.40;62.50
6256;DHT22;3161;48.794;9.784;2023-03-03T12:49:19;19.00;58.50
6256;DHT22;3161;48.794;9.784;2023-03-03T12:55:01;20.00;55.00
6256;DHT22;3161;48.794;9.784;2023-03-03T12:57:37;20.20;56.00
6256;DHT22;3161;48.794;9.784;2023-03-03T13:00:22;20.70;54.30
6256;DHT22;3161;48.794;9.784;2023-03-03T13:03:31;21.30;51.40
6256;DHT22;3161;48.794;9.784;2023-03-03T13:13:45;21.30;47.10
6256;DHT22;3161;48.794;9.784;2023-03-03T13:16:19;21.10;49.10
6256;DHT22;3161;48.794;9.784;2023-03-03T13:19:24;21.50;48.50
6256;DHT22;3161;48.794;9.784;2023-03-03T13:21:45;21.90;46.80
6256;DHT22;3161;48.794;9.784;2023-03-03T13:32:27;23.40;42.90
6256;DHT22;3161;48.794;9.784;2023-03-03T13:37:43;25.30;40.00
6256;DHT22;3161;48.794;9.784;2023-03-03T13:40:26;26.20;38.00
6256;DHT22;3161;48.794;9.784;2023-03-03T13:42:58;27.10;36.90
6256;DHT22;3161;48.794;9.784;2023-03-03T13:51:02;28.60;32.80
6256;DHT22;3161;48.794;9.784;2023-03-03T13:53:41;28.90;31.30
6256;DHT22;3161;48.794;9.784;2023-03-03T13:58:58;28.90;30.20
6256;DHT22;3161;48.794;9.784;2023-03-03T14:01:47;27.90;32.10
6256;DHT22;3161;48.794;9.784;2023-03-03T14:07:17;24.30;35.40
6256;DHT22;3161;48.794;9.784;2023-03-03T14:10:10;22.30;37.40
6256;DHT22;3161;48.794;9.784;2023-03-03T14:15:28;19.70;42.40
6256;DHT22;3161;48.794;9.784;2023-03-03T14:20:53;18.30;43.60
6256;DHT22;3161;48.794;9.784;2023-03-03T14:23:33;17.80;45.10
6256;DHT22;3161;48.794;9.784;2023-03-03T14:26:08;17.30;46.60
6256;DHT22;3161;48.794;9.784;2023-03-03T14:28:42;16.90;47.50
6256;DHT22;3161;48.794;9.784;2023-03-03T14:31:25;16.70;48.30
6256;DHT22;3161;48.794;9.784;2023-03-03T14:36:51;18.70;46.00
6256;DHT22;3161;48.794;9.784;2023-03-03T14:39:49;21.70;42.40
6256;DHT22;3161;48.794;9.784;2023-03-03T14:42:38;24.00;40.20
6256;DHT22;3161;48.794;9.784;2023-03-03T14:45:22;26.00;36.40
6256;DHT22;3161;48.794;9.784;2023-03-03T14:47:49;27.00;34.30
6256;DHT22;3161;48.794;9.784;2023-03-03T14:50:34;27.70;33.70
6256;DHT22;3161;48.794;9.784;2023-03-03T14:53:09;28.30;32.50
6256;DHT22;3161;48.794;9.784;2023-03-03T14:55:38;28.70;31.30
6256;DHT22;3161;48.794;9.784;2023-03-03T14:58:27;28.70;31.10
6256;DHT22;3161;48.794;9.784;2023-03-03T15:01:13;28.80;30.90
6256;DHT22;3161;48.794;9.784;2023-03-03T15:03:46;29.00;31.50
6256;DHT22;3161;48.794;9.784;2023-03-03T15:09:27;29.00;30.20
6256;DHT22;3161;48.794;9.784;2023-03-03T15:12:23;29.10;29.90
6256;DHT22;3161;48.794;9.784;2023-03-03T15:17:42;29.40;29.80
6256;DHT22;3161;48.794;9.784;2023-03-03T15:25:56;29.40;29.20
6256;DHT22;3161;48.794;9.784;2023-03-03T15:31:39;28.80;29.60
6256;DHT22;3161;48.794;9.784;2023-03-03T15:34:22;28.40;29.80
6256;DHT22;3161;48.794;9.784;2023-03-03T15:39:50;27.60;30.30
6256;DHT22;3161;48.794;9.784;2023-03-03T15:42:32;27.30;30.40
6256;DHT22;3161;48.794;9.784;2023-03-03T15:45:17;27.00;30.80
6256;DHT22;3161;48.794;9.784;2023-03-03T15:53:34;24.30;34.00
6256;DHT22;3161;48.794;9.784;2023-03-03T15:56:08;22.40;35.10
6256;DHT22;3161;48.794;9.784;2023-03-03T15:58:52;20.70;38.10
6256;DHT22;3161;48.794;9.784;2023-03-03T16:01:25;19.30;40.00
6256;DHT22;3161;48.794;9.784;2023-03-03T16:04:03;18.10;41.40
6256;DHT22;3161;48.794;9.784;2023-03-03T16:06:43;17.20;43.60
6256;DHT22;3161;48.794;9.784;2023-03-03T16:09:15;16.40;44.40
6256;DHT22;3161;48.794;9.784;2023-03-03T16:17:36;14.70;48.60
6256;DHT22;3161;48.794;9.784;2023-03-03T16:25:33;13.50;51.80
6256;DHT22;3161;48.794;9.784;2023-03-03T16:28:14;13.20;52.20
6256;DHT22;3161;48.794;9.784;2023-03-03T16:38:59;12.30;56.70
6256;DHT22;3161;48.794;9.784;2023-03-03T16:41:40;12.10;58.10
6256;DHT22;3161;48.794;9.784;2023-03-03T16:46:48;11.80;58.50
6256;DHT22;3161;48.794;9.784;2023-03-03T16:49:31;11.60;60.40
6256;DHT22;3161;48.794;9.784;2023-03-03T16:52:10;11.40;61.00
6256;DHT22;3161;48.794;9.784;2023-03-03T16:54:45;11.20;62.20
6256;DHT22;3161;48.794;9.784;2023-03-03T17:00:14;10.90;63.50
6256;DHT22;3161;48.794;9.784;2023-03-03T17:03:13;10.70;64.60
6256;DHT22;3161;48.794;9.784;2023-03-03T17:06:05;10.50;66.00
6256;DHT22;3161;48.794;9.784;2023-03-03T17:11:09;10.10;68.00
6256;DHT22;3161;48.794;9.784;2023-03-03T17:16:21;9.70;69.90
6256;DHT22;3161;48.794;9.784;2023-03-03T17:19:13;9.60;70.20
6256;DHT22;3161;48.794;9.784;2023-03-03T17:21:47;9.50;71.70
6256;DHT22;3161;48.794;9.784;2023-03-03T17:29:59;9.00;74.00
6256;DHT22;3161;48.794;9.784;2023-03-03T17:32:31;8.90;74.60
6256;DHT22;3161;48.794;9.784;2023-03-03T17:37:51;8.60;76.20
6256;DHT22;3161;48.794;9.784;2023-03-03T17:40:28;8.50;77.00
6256;DHT22;3161;48.794;9.784;2023-03-03T17:45:33;8.30;78.90
6256;DHT22;3161;48.794;9.784;2023-03-03T17:48:08;8.20;80.00
6256;DHT22;3161;48.794;9.784;2023-03-03T17:50:54;8.20;81.10
6256;DHT22;3161;48.794;9.784;2023-03-03T17:56:24;7.90;82.50
6256;DHT22;3161;48.794;9.784;2023-03-03T17:59:15;7.80;83.20
6256;DHT22;3161;48.794;9.784;2023-03-03T18:04:54;7.50;85.80
6256;DHT22;3161;48.794;9.784;2023-03-03T18:10:25;7.30;88.00
6256;DHT22;3161;48.794;9.784;2023-03-03T18:18:55;6.90;90.60
6256;DHT22;3161;48.794;9.784;2023-03-03T18:21:23;6.80;91.10
6256;DHT22;3161;48.794;9.784;2023-03-03T18:23:51;6.70;91.40
6256;DHT22;3161;48.794;9.784;2023-03-03T18:26:40;6.60;92.20
6256;DHT22;3161;48.794;9.784;2023-03-03T18:29:20;6.60;92.40
6256;DHT22;3161;48.794;9.784;2023-03-03T18:32:35;6.50;93.00
6256;DHT22;3161;48.794;9.784;2023-03-03T18:37:37;6.30;94.10
6256;DHT22;3161;48.794;9.784;2023-03-03T18:39:45;6.20;94.20
6256;DHT22;3161;48.794;9.784;2023-03-03T18:44:51;6.10;95.40
6256;DHT22;3161;48.794;9.784;2023-03-03T18:47:25;6.00;96.10
6256;DHT22;3161;48.794;9.784;2023-03-03T18:50:00;5.90;96.20
6256;DHT22;3161;48.794;9.784;2023-03-03T18:52:32;5.80;96.80
6256;DHT22;3161;48.794;9.784;2023-03-03T18:57:38;5.70;97.90
6256;DHT22;3161;48.794;9.784;2023-03-03T19:00:28;5.60;98.60
6256;DHT22;3161;48.794;9.784;2023-03-03T19:02:54;5.50;99.30
6256;DHT22;3161;48.794;9.784;2023-03-03T19:05:25;5.50;99.90
6256;DHT22;3161;48.794;9.784;2023-03-03T19:10:56;5.40;99.90
6256;DHT22;3161;48.794;9.784;2023-03-03T19:13:38;5.30;99.90
6256;DHT22;3161;48.794;9.784;2023-03-03T19:19:03;5.20;99.90
6256;DHT22;3161;48.794;9.784;2023-03-03T19:21:35;5.10;99.90
6256;DHT22;3161;48.794;9.784;2023-03-03T19:24:07;5.00;99.90
6256;DHT22;3161;48.794;9.784;2023-03-03T19:26:43;5.00;99.90
6256;DHT22;3161;48.794;9.784;2023-03-03T19:29:43;4.90;99.90
6256;DHT22;3161;48.794;9.784;2023-03-03T19:37:46;4.80;99.90
6256;DHT22;3161;48.794;9.784;2023-03-03T19:40:33;4.70;99.90
6256;DHT22;3161;48.794;9.784;2023-03-03T19:43:27;4.60;99.90
6256;DHT22;3161;48.794;9.784;2023-03-03T19:56:54;4.30;99.90
6256;DHT22;3161;48.794;9.784;2023-03-03T20:02:32;4.20;99.90
6256;DHT22;3161;48.794;9.784;2023-03-03T20:05:16;4.20;99.90
6256;DHT22;3161;48.794;9.784;2023-03-03T20:16:01;3.90;99.90
6256;DHT22;3161;48.794;9.784;2023-03-03T20:19:00;3.90;99.90
6256;DHT22;3161;48.794;9.784;2023-03-03T20:32:38;3.60;99.90
6256;DHT22;3161;48.794;9.784;2023-03-03T20:35:24;3.60;99.90
6256;DHT22;3161;48.794;9.784;2023-03-03T20:49:16;3.40;99.90
6256;DHT22;3161;48.794;9.784;2023-03-03T20:51:55;3.30;99.90
6256;DHT22;3161;48.794;9.784;2023-03-03T20:54:46;3.30;99.90
6256;DHT22;3161;48.794;9.784;2023-03-03T20:58:19;3.20;99.90
6256;DHT22;3161;48.794;9.784;2023-03-03T21:00:05;3.20;99.90
6256;DHT22;3161;48.794;9.784;2023-03-03T21:02:42;3.20;99.90
6256;DHT22;3161;48.794;9.784;2023-03-03T21:07:57;3.10;99.90
6256;DHT22;3161;48.794;9.784;2023-03-03T21:10:30;3.10;99.90
6256;DHT22;3161;48.794;9.784;2023-03-03T21:16:08;3.00;99.90
6256;DHT22;3161;48.794;9.784;2023-03-03T21:18:33;3.00;99.90
6256;DHT22;3161;48.794;9.784;2023-03-03T21:21:03;2.90;99.90
6256;DHT22;3161;48.794;9.784;2023-03-03T21:23:31;3.00;99.90
6256;DHT22;3161;48.794;9.784;2023-03-03T21:25:59;3.00;99.90
6256;DHT22;3161;48.794;9.784;2023-03-03T21:28:29;3.00;99.90
6256;DHT22;3161;48.794;9.784;2023-03-03T21:31:08;2.90;99.90
6256;DHT22;3161;48.794;9.784;2023-03-03T21:33:48;2.90;99.90
6256;DHT22;3161;48.794;9.784;2023-03-03T21:36:42;2.90;99.90
6256;DHT22;3161;48.794;9.784;2023-03-03T21:38:53;2.80;99.90
6256;DHT22;3161;48.794;9.784;2023-03-03T21:41:21;2.80;99.90
6256;DHT22;3161;48.794;9.784;2023-03-03T21:43:50;2.80;99.90
6256;DHT22;3161;48.794;9.784;2023-03-03T21:46:23;2.80;99.90
6256;DHT22;3161;48.794;9.784;2023-03-03T21:48:51;2.80;99.90
6256;DHT22;3161;48.794;9.784;2023-03-03T21:51:19;2.80;99.90
6256;DHT22;3161;48.794;9.784;2023-03-03T21:53:49;2.80;99.90
6256;DHT22;3161;48.794;9.784;2023-03-03T21:56:16;2.70;99.90
6256;DHT22;3161;48.794;9.784;2023-03-03T21:58:44;2.60;99.90
6256;DHT22;3161;48.794;9.784;2023-03-03T22:01:12;2.60;99.90
6256;DHT22;3161;48.794;9.784;2023-03-03T22:03:39;2.60;99.90
6256;DHT22;3161;48.794;9.784;2023-03-03T22:06:08;2.50;99.90